Time;durP1;ratioP1;P1;durP2;ratioP2;P2;SDS_P1;SDS_P2;PMS_P1;PMS_P2;Temp;Humidity;BMP_temperature;BMP_pressure;BME280_temperature;BME280_humidity;BME280_pressure;Samples;Min_cycle;Max_cycle;Signal;HPM_P1;HPM_P2
2023/09/07 00:00:46;;;;;;;14.27;12.88;;;;;;;-144.30;85.42;84730.53;5111942;28;20273;-51
2023/09/07 00:03:14;;;;;;;15.00;12.38;;;;;;;-144.30;85.51;84762.34;5111404;28;20209;-57
2023/09/07 00:05:41;;;;;;;15.55;12.30;;;;;;;-144.30;85.94;84750.41;5111644;28;20689;-57
2023/09/07 00:08:08;;;;;;;14.50;12.52;;;;;;;-144.30;85.47;84746.44;5111429;28;20469;-51
2023/09/07 00:10:35;;;;;;;14.88;12.10;;;;;;;-144.30;85.40;84746.44;5111611;28;20195;-57
2023/09/07 00:13:03;;;;;;;13.85;12.55;;;;;;;-144.30;85.39;84734.50;5111166;28;20222;-57
2023/09/07 00:15:30;;;;;;;13.23;11.60;;;;;;;-144.30;85.27;84742.47;5111886;28;20645;-50
2023/09/07 00:17:57;;;;;;;13.25;11.98;;;;;;;-144.30;84.70;84676.88;5111572;28;20195;-50
2023/09/07 00:20:25;;;;;;;13.35;11.85;;;;;;;-144.30;85.23;84764.31;5111580;28;20191;-57
2023/09/07 00:22:52;;;;;;;14.13;12.30;;;;;;;-144.30;85.35;84742.47;5111520;28;20592;-57
2023/09/07 00:25:20;;;;;;;13.57;11.80;;;;;;;-144.30;85.62;84768.31;5111361;28;20217;-51
2023/09/07 00:27:46;;;;;;;16.40;12.30;;;;;;;-144.30;85.65;84744.44;5111360;28;20632;-51
2023/09/07 00:30:14;;;;;;;12.65;11.07;;;;;;;-144.30;84.60;84728.56;5111078;28;20566;-51
2023/09/07 00:32:41;;;;;;;13.23;11.20;;;;;;;-144.30;84.48;84704.69;5111120;28;20203;-50
2023/09/07 00:35:10;;;;;;;12.35;11.25;;;;;;;-144.30;85.20;84762.34;5110870;28;20219;-50
2023/09/07 00:37:39;;;;;;;11.82;10.82;;;;;;;-144.30;84.31;84776.25;5111442;28;20659;-58
2023/09/07 00:40:09;;;;;;;11.75;10.23;;;;;;;-144.30;82.65;84774.25;5110977;28;20191;-50
2023/09/07 00:42:36;;;;;;;11.52;10.35;;;;;;;-144.30;82.38;84732.53;5110957;28;20195;-50
2023/09/07 00:45:03;;;;;;;10.73;9.80;;;;;;;-144.30;82.23;84740.47;5111023;28;20244;-58
2023/09/07 00:47:30;;;;;;;13.68;10.00;;;;;;;-144.30;81.88;84738.47;5110925;28;20198;-57
2023/09/07 00:49:58;;;;;;;10.65;9.60;;;;;;;-144.30;81.87;84744.44;5111046;28;20685;-50
2023/09/07 00:52:25;;;;;;;11.02;9.45;;;;;;;-144.30;80.90;84724.56;5111016;28;20277;-50
2023/09/07 00:54:53;;;;;;;11.18;9.73;;;;;;;-144.30;80.62;84742.47;5110749;28;20218;-51
2023/09/07 00:57:20;;;;;;;10.82;9.70;;;;;;;-144.30;80.62;84748.44;5110775;28;20584;-57
2023/09/07 00:59:47;;;;;;;10.90;9.43;;;;;;;-144.30;80.37;84758.38;5110610;28;20195;-58
2023/09/07 01:02:14;;;;;;;13.45;9.75;;;;;;;-144.30;80.85;84736.50;5110287;28;20209;-57
2023/09/07 01:04:42;;;;;;;12.15;8.75;;;;;;;-144.30;80.27;84756.38;5110841;28;20681;-50
2023/09/07 01:07:16;;;;;;;15.38;9.00;;;;;;;-144.30;80.67;84782.22;5110680;28;20205;-57
2023/09/07 01:09:44;;;;;;;11.15;10.15;;;;;;;-144.30;81.25;84724.56;5110518;28;20203;-50
2023/09/07 01:12:17;;;;;;;9.52;8.65;;;;;;;-144.30;81.00;84752.41;5110353;28;20195;-59
2023/09/07 01:14:44;;;;;;;10.05;9.15;;;;;;;-144.30;82.12;84748.44;5110192;28;20225;-57
2023/09/07 01:17:11;;;;;;;9.82;8.88;;;;;;;-144.30;81.09;84768.31;5110537;28;20683;-57
2023/09/07 01:19:38;;;;;;;8.90;7.82;;;;;;;-144.30;80.55;84754.38;5110281;28;20251;-51
2023/09/07 01:22:08;;;;;;;12.27;8.30;;;;;;;-144.30;80.07;84744.44;5110231;28;20195;-54
2023/09/07 01:24:36;;;;;;;10.93;8.55;;;;;;;-144.30;79.59;84748.44;5110215;28;20272;-52
2023/09/07 01:27:05;;;;;;;13.27;9.25;;;;;;;-144.30;79.73;84768.31;5110226;28;20282;-57
2023/09/07 01:29:33;;;;;;;8.75;8.02;;;;;;;-144.30;79.36;84814.00;5110340;28;20203;-51
2023/09/07 01:32:00;;;;;;;11.57;9.07;;;;;;;-144.30;78.91;84810.03;5110239;28;20700;-52
2023/09/07 01:34:27;;;;;;;9.13;8.30;;;;;;;-144.30;78.47;84736.50;5110290;28;20690;-51
2023/09/07 01:36:54;;;;;;;8.57;7.78;;;;;;;-144.30;76.42;85396.44;5110104;28;20197;-58
2023/09/07 01:39:23;;;;;;;7.78;6.97;;;;;;;-144.30;77.38;84754.38;5110087;28;20198;-58
2023/09/07 01:41:50;;;;;;;8.15;7.50;;;;;;;-144.30;77.65;84808.06;5109975;28;20562;-50
2023/09/07 01:44:17;;;;;;;7.40;6.80;;;;;;;-144.30;78.99;84823.94;5109913;28;20190;-56
2023/09/07 01:46:44;;;;;;;9.98;8.07;;;;;;;-144.30;79.78;84786.19;5109860;28;20205;-51
2023/09/07 01:49:11;;;;;;;11.77;8.23;;;;;;;-144.30;80.12;84804.06;5109865;28;20200;-57
2023/09/07 01:51:38;;;;;;;8.65;7.93;;;;;;;-144.30;80.49;84808.06;5110071;28;20198;-57
2023/09/07 01:54:05;;;;;;;11.98;8.27;;;;;;;-144.30;81.46;84823.94;5109897;28;20230;-52
2023/09/07 01:56:33;;;;;;;10.55;9.38;;;;;;;-144.30;82.57;84831.91;5109750;28;20194;-51
2023/09/07 01:59:00;;;;;;;14.07;8.82;;;;;;;-144.30;83.27;84831.91;5109760;28;20209;-51
2023/09/07 02:01:30;;;;;;;10.60;9.65;;;;;;;-144.30;83.79;84825.94;5110160;28;20199;-51
2023/09/07 02:03:57;;;;;;;13.65;9.95;;;;;;;-144.30;84.81;84802.09;5109959;28;20255;-57
2023/09/07 02:06:24;;;;;;;11.20;9.75;;;;;;;-144.30;85.90;84845.81;5110014;28;20201;-50
2023/09/07 02:08:51;;;;;;;15.73;12.80;;;;;;;-144.30;88.98;84859.72;5111827;28;20205;-57
2023/09/07 02:11:18;;;;;;;14.68;13.18;;;;;;;-144.30;90.36;84863.72;5113843;28;20799;-57
2023/09/07 02:13:48;;;;;;;19.80;16.25;;;;;;;-144.30;92.50;84863.72;5114011;28;20580;-57
2023/09/07 02:16:15;;;;;;;24.02;17.73;;;;;;;-144.30;94.83;84883.59;5113851;28;20205;-58
2023/09/07 02:18:45;;;;;;;23.63;17.63;;;;;;;-144.30;96.43;84865.69;5113933;28;20568;-49
2023/09/07 02:21:13;;;;;;;26.85;20.63;;;;;;;-144.30;97.71;84835.88;5113661;28;20199;-51
2023/09/07 02:23:40;;;;;;;23.17;20.67;;;;;;;-144.30;98.89;84891.53;5113588;28;20234;-57
2023/09/07 02:26:07;;;;;;;26.83;21.13;;;;;;;-144.30;99.66;84891.53;5113915;28;20202;-58
2023/09/07 02:28:34;;;;;;;22.92;20.30;;;;;;;-144.30;100.00;84933.28;5113632;28;20224;-58
2023/09/07 02:31:06;;;;;;;26.50;21.40;;;;;;;-144.30;100.00;84951.16;5113667;28;20224;-57
2023/09/07 02:33:33;;;;;;;26.98;21.67;;;;;;;-144.30;100.00;84907.44;5113447;28;20199;-58
2023/09/07 02:36:00;;;;;;;24.67;21.23;;;;;;;-144.30;100.00;84931.28;5113344;28;20218;-57
2023/09/07 02:38:27;;;;;;;25.40;22.63;;;;;;;-144.30;100.00;84919.34;5113780;28;20209;-58
2023/09/07 02:40:54;;;;;;;24.10;21.60;;;;;;;-144.30;100.00;84967.06;5113770;28;20194;-58
2023/09/07 02:43:22;;;;;;;27.38;23.23;;;;;;;-144.30;100.00;84959.13;5113172;28;20202;-58
2023/09/07 02:45:49;;;;;;;25.92;22.63;;;;;;;-144.30;100.00;84982.97;5113845;28;20273;-58
2023/09/07 02:48:17;;;;;;;30.67;23.27;;;;;;;-144.30;100.00;84951.16;5113163;28;20195;-51
2023/09/07 02:51:03;;;;;;;28.15;22.58;;;;;;;-144.30;100.00;85002.84;5113117;28;20202;-51
2023/09/07 02:53:30;;;;;;;27.90;23.33;;;;;;;-144.30;100.00;85000.84;5113142;28;20195;-57
2023/09/07 02:55:57;;;;;;;26.88;23.80;;;;;;;-144.30;100.00;85016.75;5113204;28;20225;-50
2023/09/07 02:58:24;;;;;;;29.80;24.73;;;;;;;-144.30;100.00;85014.78;5113346;28;20553;-51
2023/09/07 03:00:51;;;;;;;28.00;24.73;;;;;;;-144.30;100.00;85635.00;5113103;28;20206;-49
2023/09/07 03:03:20;;;;;;;31.65;26.55;;;;;;;-144.30;100.00;85046.56;5112663;28;20190;-48
2023/09/07 03:05:46;;;;;;;30.52;25.65;;;;;;;-144.30;100.00;85014.78;5113078;28;20186;-53
2023/09/07 03:08:13;;;;;;;27.23;24.05;;;;;;;-144.30;100.00;84994.91;5112902;28;20199;-49
2023/09/07 03:10:40;;;;;;;32.88;25.90;;;;;;;-144.30;100.00;85006.81;5113250;28;20670;-55
2023/09/07 03:13:08;;;;;;;28.80;25.60;;;;;;;-144.30;100.00;84996.88;5112806;28;20194;-51
2023/09/07 03:15:35;;;;;;;31.02;27.23;;;;;;;-144.30;100.00;85002.84;5112706;28;20222;-49
2023/09/07 03:18:02;;;;;;;29.50;25.55;;;;;;;-144.30;100.00;85026.69;5112892;28;20209;-55
2023/09/07 03:20:34;;;;;;;34.40;26.70;;;;;;;-144.30;100.00;85022.72;5111633;28;20199;-49
2023/09/07 03:23:01;;;;;;;32.25;26.88;;;;;;;-144.30;100.00;85022.72;5112652;28;20713;-50
2023/09/07 03:25:28;;;;;;;29.63;26.52;;;;;;;-144.30;100.00;85042.59;5112649;28;20191;-50
2023/09/07 03:27:55;;;;;;;32.05;27.27;;;;;;;-144.30;100.00;85042.59;5112577;28;20593;-49
2023/09/07 03:30:22;;;;;;;34.80;27.40;;;;;;;-144.30;100.00;85066.44;5112243;28;20205;-48
2023/09/07 03:32:49;;;;;;;33.92;26.55;;;;;;;-144.30;100.00;85062.47;5112584;28;20199;-48
2023/09/07 03:35:16;;;;;;;35.17;27.63;;;;;;;-144.30;100.00;85080.38;5112375;28;20605;-54
2023/09/07 03:37:44;;;;;;;33.58;26.80;;;;;;;-144.30;100.00;85056.50;5112284;28;20587;-55
2023/09/07 03:40:12;;;;;;;31.63;27.20;;;;;;;-144.30;100.00;85084.34;5111793;28;20284;-49
2023/09/07 03:42:39;;;;;;;34.92;27.17;;;;;;;-144.30;100.00;85026.69;5112005;28;20190;-54
2023/09/07 03:45:07;;;;;;;30.40;26.13;;;;;;;-144.30;100.00;85018.75;5111403;28;20200;-49
2023/09/07 03:47:33;;;;;;;30.77;26.60;;;;;;;-144.30;100.00;85050.53;5111782;28;20187;-49
2023/09/07 03:50:01;;;;;;;30.85;27.38;;;;;;;-144.30;100.00;85068.44;5111522;28;20238;-55
2023/09/07 03:52:27;;;;;;;33.72;26.83;;;;;;;-144.30;100.00;85054.53;5111626;28;20230;-55
2023/09/07 03:54:57;;;;;;;37.05;26.25;;;;;;;-144.30;100.00;85024.72;5112010;28;20234;-54
2023/09/07 03:57:24;;;;;;;33.80;26.42;;;;;;;-144.30;100.00;85042.59;5111490;28;20224;-54
2023/09/07 03:59:51;;;;;;;33.00;26.48;;;;;;;-144.30;100.00;85062.47;5112065;28;20194;-54
2023/09/07 04:02:18;;;;;;;30.08;24.85;;;;;;;-144.30;100.00;85048.56;5111519;28;20580;-49
2023/09/07 04:04:49;;;;;;;32.33;25.45;;;;;;;-144.30;100.00;85098.25;5111866;28;20190;-49
2023/09/07 04:07:16;;;;;;;32.58;24.75;;;;;;;-144.30;100.00;85080.38;5111830;28;20190;-50
2023/09/07 04:09:43;;;;;;;34.40;25.90;;;;;;;-144.30;100.00;85048.56;5111845;28;20199;-49
2023/09/07 04:12:11;;;;;;;29.88;25.05;;;;;;;-144.30;100.00;85082.34;5111522;28;20195;-50
2023/09/07 04:14:38;;;;;;;29.50;25.48;;;;;;;-144.30;100.00;85038.63;5110947;28;20215;-49
2023/09/07 04:17:05;;;;;;;28.23;24.92;;;;;;;-144.30;100.00;85056.50;5110896;28;20191;-49
2023/09/07 04:19:32;;;;;;;28.92;24.50;;;;;;;-144.30;100.00;85002.84;5111274;28;20194;-49
2023/09/07 04:21:59;;;;;;;33.80;25.92;;;;;;;-144.30;100.00;85018.75;5111744;28;20190;-50
2023/09/07 04:24:27;;;;;;;40.22;32.33;;;;;;;-144.30;100.00;84982.97;5110519;28;20221;-49
2023/09/07 04:26:54;;;;;;;33.88;27.63;;;;;;;-144.30;100.00;84986.94;5111074;28;20195;-56
2023/09/07 04:29:23;;;;;;;34.05;27.38;;;;;;;-144.30;100.00;84965.06;5110817;28;20190;-57
2023/09/07 04:31:49;;;;;;;30.38;24.52;;;;;;;-144.30;100.00;84969.06;5110053;28;20198;-56
2023/09/07 04:34:16;;;;;;;29.73;23.63;;;;;;;-144.30;100.00;84986.94;5110304;28;20222;-57
2023/09/07 04:36:43;;;;;;;27.20;22.40;;;;;;;-144.30;100.00;84899.47;5109369;28;20195;-57
2023/09/07 04:39:10;;;;;;;30.80;22.77;;;;;;;-144.30;100.00;84853.78;5110601;28;20199;-50
2023/09/07 04:41:37;;;;;;;25.95;22.88;;;;;;;-144.30;100.00;84843.84;5111053;28;20198;-56
2023/09/07 04:44:04;;;;;;;38.65;21.92;;;;;;;-144.30;97.81;84692.78;5110768;28;20205;-57
2023/09/07 04:46:32;;;;;;;32.63;20.75;;;;;;;-144.30;93.73;84581.47;5110950;28;20191;-51
2023/09/07 04:48:59;;;;;;;25.38;20.13;;;;;;;-144.30;92.47;84593.41;5109733;28;20191;-57
2023/09/07 04:51:26;;;;;;;27.90;19.20;;;;;;;-144.30;91.02;84561.59;5110723;28;20199;-56
2023/09/07 04:53:53;;;;;;;24.10;19.83;;;;;;;-144.30;90.57;84571.53;5110611;28;20194;-56
2023/09/07 04:56:21;;;;;;;26.92;20.42;;;;;;;-144.30;90.97;84537.75;5110364;28;20214;-56
2023/09/07 04:58:48;;;;;;;29.77;20.90;;;;;;;-144.30;91.84;84553.66;5110894;28;20202;-57
2023/09/07 05:01:15;;;;;;;22.15;19.88;;;;;;;-144.30;89.35;84412.53;5110776;28;20294;-57
2023/09/07 05:03:43;;;;;;;23.08;18.83;;;;;;;-144.30;85.00;84319.13;5110636;28;20195;-50
2023/09/07 05:06:10;;;;;;;20.35;18.27;;;;;;;-144.30;83.67;84333.06;5110387;28;20191;-50
2023/09/07 05:08:37;;;;;;;20.15;17.45;;;;;;;-144.30;84.69;84370.81;5110679;28;20285;-51
2023/09/07 05:11:05;;;;;;;38.80;19.17;;;;;;;-144.30;86.38;84478.13;5110192;28;20407;-51
2023/09/07 05:13:32;;;;;;;23.92;19.60;;;;;;;-144.30;87.43;84519.88;5110530;28;20234;-50
2023/09/07 05:16:00;;;;;;;24.40;17.48;;;;;;;-144.30;87.84;84470.19;5110603;28;20225;-50
2023/09/07 05:18:27;;;;;;;23.02;18.85;;;;;;;-144.30;87.96;84486.06;5110364;28;20195;-57
2023/09/07 05:20:55;;;;;;;24.77;19.15;;;;;;;-144.30;88.13;84501.97;5110832;28;20190;-57
2023/09/07 05:23:24;;;;;;;21.95;19.15;;;;;;;-144.30;88.21;84517.88;5110289;28;20222;-57
2023/09/07 05:25:53;;;;;;;25.65;19.63;;;;;;;-144.30;88.16;84511.91;5110001;28;20194;-50
2023/09/07 05:28:20;;;;;;;25.75;19.25;;;;;;;-144.30;88.01;84480.13;5110263;28;20203;-49
2023/09/07 05:30:47;;;;;;;25.90;19.48;;;;;;;-144.30;87.76;84511.91;5110405;28;20289;-49
2023/09/07 05:33:16;;;;;;;25.80;19.55;;;;;;;-144.30;87.67;84521.84;5109929;28;20198;-50
2023/09/07 05:35:45;;;;;;;23.02;19.75;;;;;;;-144.30;88.16;84503.97;5110033;28;20234;-53
2023/09/07 05:38:14;;;;;;;30.90;21.02;;;;;;;-144.30;88.86;84468.19;5109895;28;20186;-58
2023/09/07 05:40:41;;;;;;;27.08;19.05;;;;;;;-144.30;85.81;84396.66;5110086;28;20205;-58
2023/09/07 05:43:09;;;;;;;29.02;20.67;;;;;;;-144.30;82.37;84233.69;5109114;28;20194;-58
2023/09/07 05:45:38;;;;;;;28.42;18.30;;;;;;;-144.30;80.22;84166.13;5109434;28;20613;-57
2023/09/07 05:48:05;;;;;;;26.05;21.80;;;;;;;-144.30;79.92;84166.13;5110203;28;20198;-59
2023/09/07 05:50:34;;;;;;;26.40;18.58;;;;;;;-144.30;79.71;84138.28;5110036;28;20190;-58
2023/09/07 05:53:01;;;;;;;22.35;19.02;;;;;;;-144.30;80.03;84182.00;5109869;28;20198;-58
2023/09/07 05:55:30;;;;;;;23.98;19.35;;;;;;;-144.30;80.13;84106.50;5109827;28;20222;-51
2023/09/07 05:57:58;;;;;;;28.45;19.35;;;;;;;-144.30;79.23;83977.34;5108946;28;20200;-53
2023/09/07 06:00:25;;;;;;;27.55;20.63;;;;;;;-144.30;76.18;83925.66;5109545;28;20203;-51
2023/09/07 06:02:52;;;;;;;23.80;18.85;;;;;;;-144.30;74.87;83915.75;5109698;28;20191;-51
2023/09/07 06:05:19;;;;;;;30.95;19.02;;;;;;;-144.30;75.05;83925.66;5109598;28;20191;-58
2023/09/07 06:07:46;;;;;;;28.88;18.80;;;;;;;-144.30;76.08;83925.66;5109439;28;20206;-53
2023/09/07 06:10:13;;;;;;;21.67;17.23;;;;;;;-144.30;73.86;83726.97;5109795;28;20221;-52
2023/09/07 06:12:41;;;;;;;24.42;17.60;;;;;;;-144.30;68.71;83407.06;5109566;28;20198;-57
2023/09/07 06:15:09;;;;;;;30.50;15.90;;;;;;;-144.30;64.90;83150.78;5109174;28;20229;-57
2023/09/07 06:17:36;;;;;;;21.50;15.90;;;;;;;-144.30;55.54;82880.63;5109793;28;20827;-51
2023/09/07 06:20:04;;;;;;;22.90;16.35;;;;;;;-144.30;53.29;82745.53;5109665;28;20206;-57
2023/09/07 06:22:31;;;;;;;20.00;15.60;;;;;;;-144.30;51.72;82578.69;5109192;28;20298;-57
2023/09/07 06:24:58;;;;;;;18.60;15.30;;;;;;;-144.30;49.99;82501.22;5109569;28;20194;-58
2023/09/07 06:27:25;;;;;;;19.83;14.98;;;;;;;-144.30;48.93;82513.13;5109324;28;20581;-57
2023/09/07 06:29:53;;;;;;;21.05;15.85;;;;;;;-144.30;49.49;82475.41;5109924;28;20736;-58
2023/09/07 06:32:20;;;;;;;16.90;14.93;;;;;;;-144.30;49.58;82529.03;5109342;28;20194;-57
2023/09/07 06:34:47;;;;;;;24.27;15.30;;;;;;;-144.30;50.53;82737.59;5109409;28;20717;-52
2023/09/07 06:37:14;;;;;;;23.67;15.85;;;;;;;-144.30;52.23;82926.31;5109314;28;20693;-58
2023/09/07 06:39:43;;;;;;;24.65;15.85;;;;;;;-144.30;54.18;83001.78;5109490;28;20190;-52
2023/09/07 06:42:10;;;;;;;23.40;15.32;;;;;;;-144.30;56.80;83273.97;5109076;28;20795;-52
2023/09/07 06:44:37;;;;;;;22.33;16.17;;;;;;;-144.30;56.34;83160.72;5109233;28;20195;-51
2023/09/07 06:47:06;;;;;;;22.85;15.48;;;;;;;-144.30;54.78;83033.59;5109522;28;20647;-53
2023/09/07 06:49:33;;;;;;;23.05;14.70;;;;;;;-144.30;52.61;82793.22;5109395;28;20221;-53
2023/09/07 06:52:00;;;;;;;19.50;17.00;;;;;;;-144.30;50.50;82856.78;5109281;28;20244;-52
2023/09/07 06:54:29;;;;;;;19.20;13.95;;;;;;;-144.30;48.14;82241.03;5110218;28;20316;-51
2023/09/07 06:56:56;;;;;;;18.35;13.73;;;;;;;-144.30;46.08;81961.00;5113231;28;20807;-58
2023/09/07 06:59:22;;;;;;;14.98;13.48;;;;;;;-144.30;44.23;81949.09;5112884;28;20665;-58
2023/09/07 07:01:49;;;;;;;15.15;12.45;;;;;;;-144.30;46.29;82245.00;5112515;28;20194;-58
2023/09/07 07:04:18;;;;;;;12.80;11.50;;;;;;;-144.30;46.56;82264.88;5112660;28;20194;-51
2023/09/07 07:06:44;;;;;;;15.27;11.65;;;;;;;-144.30;45.30;82213.22;5112844;28;20187;-58
2023/09/07 07:09:12;;;;;;;17.58;11.40;;;;;;;-144.30;44.08;82050.38;5112566;28;20584;-59
2023/09/07 07:11:39;;;;;;;13.57;11.20;;;;;;;-144.30;42.53;81784.25;5113010;28;20199;-52
2023/09/07 07:14:06;;;;;;;11.55;10.48;;;;;;;-144.30;41.86;81677.00;5112882;28;20198;-53
2023/09/07 07:16:33;;;;;;;11.77;10.88;;;;;;;-144.30;41.65;81579.72;5112740;28;20720;-52
2023/09/07 07:18:59;;;;;;;16.58;10.65;;;;;;;-144.30;40.93;81679.00;5112872;28;20197;-52
2023/09/07 07:21:28;;;;;;;13.38;10.18;;;;;;;-144.30;41.83;81990.78;5112580;28;20190;-52
2023/09/07 07:23:54;;;;;;;12.73;11.50;;;;;;;-144.30;44.38;82435.66;5112569;28;20229;-52
2023/09/07 07:26:21;;;;;;;11.20;10.25;;;;;;;-144.30;46.41;82749.50;5112353;28;20190;-52
2023/09/07 07:28:48;;;;;;;12.15;10.52;;;;;;;-144.30;48.72;82983.91;5112517;28;20199;-58
2023/09/07 07:31:15;;;;;;;12.43;11.23;;;;;;;-144.30;51.28;83146.81;5112256;28;20197;-52
2023/09/07 07:33:42;;;;;;;20.90;13.02;;;;;;;-144.30;52.25;83270.00;5112488;28;20190;-52
2023/09/07 07:36:09;;;;;;;16.35;11.13;;;;;;;-144.30;52.97;83321.66;5111920;28;20219;-53
2023/09/07 07:38:37;;;;;;;24.83;11.35;;;;;;;-144.30;53.08;83246.16;5112244;28;20201;-52
2023/09/07 07:41:04;;;;;;;17.83;11.95;;;;;;;-144.30;51.91;83204.44;5112766;28;20198;-57
2023/09/07 07:43:33;;;;;;;17.40;11.88;;;;;;;-144.30;51.56;83122.97;5112390;28;20203;-51
2023/09/07 07:46:00;;;;;;;11.52;10.48;;;;;;;-144.30;51.79;83168.66;5112345;28;20718;-51
2023/09/07 07:48:28;;;;;;;13.43;12.02;;;;;;;-144.30;52.02;83258.06;5112203;28;20331;-52
2023/09/07 07:50:55;;;;;;;12.98;11.68;;;;;;;-144.30;52.20;83270.00;5111217;28;20197;-51
2023/09/07 07:53:22;;;;;;;13.18;11.98;;;;;;;-144.30;53.01;83277.94;5111956;28;20199;-57
2023/09/07 07:55:50;;;;;;;16.20;11.73;;;;;;;-144.30;53.14;83258.06;5112058;28;20683;-57
2023/09/07 07:58:17;;;;;;;17.75;12.68;;;;;;;-144.30;52.32;83208.41;5111812;28;20584;-57
2023/09/07 08:00:47;;;;;;;15.63;11.63;;;;;;;-144.30;51.77;83150.78;5111850;28;20200;-52
2023/09/07 08:03:14;;;;;;;12.70;11.40;;;;;;;-144.30;50.90;83047.50;5111632;28;20230;-58
2023/09/07 08:05:41;;;;;;;14.80;13.02;;;;;;;-144.30;50.89;83162.72;5111270;28;20570;-58
2023/09/07 08:08:08;;;;;;;12.30;11.07;;;;;;;-144.30;52.02;83248.13;5111832;28;20194;-58
2023/09/07 08:10:36;;;;;;;15.90;11.45;;;;;;;-144.30;52.45;83283.91;5111683;28;20263;-51
2023/09/07 08:13:05;;;;;;;13.93;12.43;;;;;;;-144.30;53.70;83363.38;5111816;28;20195;-52
2023/09/07 08:15:33;;;;;;;13.63;11.60;;;;;;;-144.30;54.63;83552.13;5111539;28;20205;-52
2023/09/07 08:18:00;;;;;;;13.52;12.07;;;;;;;-144.30;55.78;83593.84;5111574;28;20198;-51
2023/09/07 08:20:29;;;;;;;15.02;11.98;;;;;;;-144.30;57.01;83655.44;5111521;28;20190;-54
2023/09/07 08:22:57;;;;;;;17.02;12.52;;;;;;;-144.30;56.94;83619.66;5111663;28;20257;-51
2023/09/07 08:25:25;;;;;;;12.82;11.60;;;;;;;-144.30;56.96;83685.25;5110831;28;20187;-57
2023/09/07 08:27:55;;;;;;;17.73;12.02;;;;;;;-144.30;56.80;83683.25;5111281;28;20232;-58
2023/09/07 08:30:25;;;;;;;17.92;11.90;;;;;;;-144.30;56.04;83681.28;5111092;28;20736;-58
2023/09/07 08:32:52;;;;;;;14.68;10.73;;;;;;;-144.30;54.80;83607.75;5111384;28;20191;-52
2023/09/07 08:35:19;;;;;;;17.48;11.00;;;;;;;-144.30;53.86;83502.44;5107937;28;20202;-52
2023/09/07 08:37:46;;;;;;;15.55;10.88;;;;;;;-144.30;52.36;83319.66;5106474;28;20676;-52
2023/09/07 08:40:16;;;;;;;11.02;9.93;;;;;;;-144.30;49.53;83180.59;5110426;28;20234;-52
2023/09/07 08:42:43;;;;;;;12.10;9.93;;;;;;;-144.30;47.84;83011.72;5107992;28;20281;-58
2023/09/07 08:45:12;;;;;;;11.25;9.10;;;;;;;-144.30;47.18;82952.13;5110220;28;20202;-57
2023/09/07 08:47:41;;;;;;;13.77;9.77;;;;;;;-144.30;47.35;82995.84;5110525;28;20670;-58
2023/09/07 08:50:09;;;;;;;11.15;9.45;;;;;;;-144.30;47.72;83077.28;5110200;28;20454;-57
2023/09/07 08:52:36;;;;;;;14.32;9.15;;;;;;;-144.30;48.12;83216.34;5110255;28;20198;-57
2023/09/07 08:55:04;;;;;;;11.35;8.82;;;;;;;-144.30;50.14;83407.06;5110033;28;20198;-57
2023/09/07 08:57:32;;;;;;;9.93;8.98;;;;;;;-144.30;51.27;83492.50;5110306;28;20214;-50
2023/09/07 08:59:59;;;;;;;9.88;9.02;;;;;;;-144.30;51.53;83424.97;5110242;28;20186;-52
2023/09/07 09:02:26;;;;;;;10.30;9.10;;;;;;;-144.30;52.30;83623.66;5110041;28;20183;-52
2023/09/07 09:04:55;;;;;;;15.88;10.30;;;;;;;-144.30;52.63;83613.72;5110244;28;20198;-53
2023/09/07 09:07:22;;;;;;;11.52;9.15;;;;;;;-144.30;52.82;83643.50;5107585;28;20191;-50
2023/09/07 09:09:49;;;;;;;12.90;10.73;;;;;;;-144.30;52.46;83635.56;5110061;28;20701;-58
2023/09/07 09:12:16;;;;;;;25.10;14.48;;;;;;;-144.30;52.25;83653.44;5109781;28;20206;-52
2023/09/07 09:14:44;;;;;;;10.13;9.15;;;;;;;-144.30;52.42;83663.38;5110087;28;20190;-53
2023/09/07 09:17:13;;;;;;;13.57;10.80;;;;;;;-144.30;53.24;83625.63;5109160;28;20682;-52
2023/09/07 09:19:41;;;;;;;15.90;11.35;;;;;;;-144.30;53.74;83611.72;5109383;28;20203;-53
2023/09/07 09:22:09;;;;;;;12.85;9.77;;;;;;;-144.30;52.75;83595.81;5109867;28;20191;-57
2023/09/07 09:24:37;;;;;;;15.25;10.63;;;;;;;-144.30;53.91;83621.66;5109420;28;20226;-58
2023/09/07 09:27:05;;;;;;;13.20;10.77;;;;;;;-144.30;54.93;83691.19;5110131;28;20187;-58
2023/09/07 09:29:34;;;;;;;11.23;10.32;;;;;;;-144.30;55.38;83707.09;5109696;28;20571;-51
2023/09/07 09:32:04;;;;;;;11.23;10.07;;;;;;;-144.30;55.18;83683.25;5109780;28;20636;-52
2023/09/07 09:34:33;;;;;;;12.50;11.27;;;;;;;-144.30;55.25;83709.09;5109995;28;20194;-51
2023/09/07 09:37:01;;;;;;;14.30;10.88;;;;;;;-144.30;55.27;83677.28;5109526;28;20222;-51
2023/09/07 09:39:29;;;;;;;11.38;10.27;;;;;;;-144.30;54.50;83615.69;5109193;28;20194;-57
2023/09/07 09:41:57;;;;;;;14.65;11.35;;;;;;;-144.30;53.77;83540.19;5109459;28;20200;-58
2023/09/07 09:44:25;;;;;;;13.48;11.80;;;;;;;-144.30;53.26;83568.00;5106948;28;20285;-53
2023/09/07 09:46:54;;;;;;;12.43;11.23;;;;;;;-144.30;54.01;83575.97;5109661;28;20201;-51
2023/09/07 09:49:21;;;;;;;12.52;11.40;;;;;;;-144.30;54.39;83564.03;5109277;28;20206;-58
2023/09/07 09:51:49;;;;;;;15.65;11.20;;;;;;;-144.30;54.19;83526.28;5109771;28;20198;-58
2023/09/07 09:54:17;;;;;;;11.40;10.30;;;;;;;-144.30;53.66;83510.41;5110018;28;20731;-58
2023/09/07 09:56:46;;;;;;;11.10;10.20;;;;;;;-144.30;51.81;83452.78;5109704;28;20222;-58
2023/09/07 09:59:13;;;;;;;12.65;11.45;;;;;;;-144.30;51.63;83424.97;5109662;28;20202;-57
2023/09/07 10:01:45;;;;;;;15.30;10.82;;;;;;;-144.30;51.26;83347.47;5109903;28;20671;-57
2023/09/07 10:04:14;;;;;;;11.95;9.68;;;;;;;-144.30;50.60;83331.59;5109433;28;20199;-58
2023/09/07 10:06:51;;;;;;;14.38;10.65;;;;;;;-144.30;50.20;83333.56;5110009;28;20197;-54
2023/09/07 10:09:19;;;;;;;14.35;9.60;;;;;;;-144.30;50.21;83347.47;5109837;28;20205;-57
2023/09/07 10:11:54;;;;;;;15.35;9.38;;;;;;;-144.30;50.12;83379.25;5109288;28;20190;-57
2023/09/07 10:14:21;;;;;;;10.48;9.15;;;;;;;-144.30;49.78;83405.09;5100406;28;20244;-56
2023/09/07 10:16:51;;;;;;;12.32;9.98;;;;;;;-144.30;50.44;83428.94;5108766;28;20690;-51
2023/09/07 10:19:19;;;;;;;12.80;10.48;;;;;;;-144.30;51.01;83474.63;5109209;28;20195;-53
2023/09/07 10:21:46;;;;;;;10.85;9.90;;;;;;;-144.30;50.52;83480.59;5106094;28;20666;-57
2023/09/07 10:24:13;;;;;;;11.30;9.48;;;;;;;-144.30;50.52;83432.91;5106602;28;20222;-58
2023/09/07 10:26:40;;;;;;;9.90;8.90;;;;;;;-144.30;50.08;83434.91;5108464;28;20190;-58
2023/09/07 10:29:08;;;;;;;11.65;10.45;;;;;;;-144.30;50.33;83466.69;5108653;28;20195;-57
2023/09/07 10:31:35;;;;;;;9.80;8.98;;;;;;;-144.30;49.90;83460.72;5112750;28;20281;-57
2023/09/07 10:34:12;;;;;;;9.98;9.00;;;;;;;-144.30;49.99;83492.50;5112343;28;20198;-50
2023/09/07 10:36:39;;;;;;;12.45;9.52;;;;;;;-144.30;50.26;83488.53;5113274;28;20686;-52
2023/09/07 10:39:08;;;;;;;13.38;10.32;;;;;;;-144.30;49.63;83432.91;5110500;28;20205;-57
2023/09/07 10:41:42;;;;;;;9.75;8.75;;;;;;;-144.30;49.05;83413.03;5112876;28;20273;-57
2023/09/07 10:44:12;;;;;;;9.75;8.80;;;;;;;-144.30;48.37;83409.06;5110450;28;20259;-57
2023/09/07 10:46:40;;;;;;;9.77;8.88;;;;;;;-144.30;47.49;83430.91;5112893;28;20285;-58
2023/09/07 10:49:10;;;;;;;14.27;9.20;;;;;;;-144.30;47.87;83464.69;5109891;28;20693;-57
2023/09/07 10:51:42;;;;;;;14.07;9.63;;;;;;;-144.30;48.66;83462.72;5112876;28;20198;-57
2023/09/07 10:54:16;;;;;;;12.15;9.18;;;;;;;-144.30;48.76;83468.66;5110054;28;20255;-57
2023/09/07 10:56:45;;;;;;;9.85;9.05;;;;;;;-144.30;49.14;83492.50;5112702;28;20654;-57
2023/09/07 10:59:14;;;;;;;10.57;9.57;;;;;;;-144.30;49.98;83566.03;5112470;28;20191;-57
2023/09/07 11:01:41;;;;;;;10.00;8.88;;;;;;;-144.30;49.96;83595.81;5112632;28;20595;-57
2023/09/07 11:04:11;;;;;;;9.63;8.70;;;;;;;-144.30;49.61;83575.97;5112437;28;20724;-57